Time;durP1;ratioP1;P1;durP2;ratioP2;P2;SDS_P1;SDS_P2;PMS_P1;PMS_P2;Temp;Humidity;BMP_temperature;BMP_pressure;BME280_temperature;BME280_humidity;BME280_pressure;Samples;Min_cycle;Max_cycle;Signal;HPM_P1;HPM_P2
2021/04/26 00:01:28;;;;;;;5.28;2.17;;;;;;;14.63;35.49;102591.91;4170993;28;20124;-60
2021/04/26 00:03:28;;;;;;;4.57;1.80;;;;;;;14.55;35.66;102599.34;4175613;28;20044;-59
2021/04/26 00:05:29;;;;;;;6.05;2.17;;;;;;;14.54;35.61;102600.38;4173479;28;20406;-59
2021/04/26 00:07:29;;;;;;;4.18;2.00;;;;;;;14.55;35.51;102588.31;4174893;28;20555;-59
2021/04/26 00:09:30;;;;;;;4.00;2.03;;;;;;;14.53;35.61;102595.91;4174908;28;20029;-59
2021/04/26 00:11:30;;;;;;;3.50;2.30;;;;;;;14.50;35.76;102584.47;4174399;28;20618;-59
2021/04/26 00:13:31;;;;;;;3.13;1.90;;;;;;;14.52;35.48;102591.47;4173234;28;20086;-59
2021/04/26 00:15:31;;;;;;;4.00;2.13;;;;;;;14.50;35.53;102592.72;4172715;28;20479;-59
2021/04/26 00:17:32;;;;;;;4.55;2.17;;;;;;;14.49;35.63;102580.88;4171845;28;20407;-60
2021/04/26 00:19:32;;;;;;;4.70;2.20;;;;;;;14.49;35.57;102577.25;4175894;28;20502;-59
2021/04/26 00:21:33;;;;;;;4.45;1.88;;;;;;;14.43;35.45;102570.69;4173514;28;20064;-59
2021/04/26 00:23:33;;;;;;;2.80;1.48;;;;;;;14.44;35.54;102575.13;4178285;28;20170;-59
2021/04/26 00:25:34;;;;;;;5.82;2.13;;;;;;;14.42;35.59;102577.22;4172555;28;20127;-60
2021/04/26 00:27:36;;;;;;;2.63;1.58;;;;;;;14.42;35.57;102578.06;4175703;28;20103;-61
2021/04/26 00:29:36;;;;;;;4.65;2.53;;;;;;;14.36;35.54;102578.91;4174064;28;20592;-61
2021/04/26 00:31:37;;;;;;;3.45;2.08;;;;;;;14.40;35.58;102574.69;4173077;28;20097;-60
2021/04/26 00:33:38;;;;;;;2.95;2.20;;;;;;;14.36;35.61;102570.63;4173876;28;20440;-59
2021/04/26 00:35:38;;;;;;;2.00;1.50;;;;;;;14.32;35.59;102574.00;4172792;28;20815;-59
2021/04/26 00:37:39;;;;;;;4.05;2.00;;;;;;;14.23;35.58;102551.31;4174465;28;20036;-60
2021/04/26 00:39:40;;;;;;;2.67;1.70;;;;;;;14.32;35.59;102572.13;4169189;28;20033;-59
2021/04/26 00:41:40;;;;;;;3.70;1.95;;;;;;;14.33;35.59;102572.97;4173944;28;20046;-60
2021/04/26 00:43:40;;;;;;;5.10;2.10;;;;;;;14.30;35.62;102562.34;4174242;28;20458;-59
2021/04/26 00:45:41;;;;;;;4.20;1.40;;;;;;;14.26;35.71;102567.44;4173479;28;20131;-60
2021/04/26 00:47:43;;;;;;;3.72;2.25;;;;;;;14.29;35.54;102561.50;4175796;28;20042;-59
2021/04/26 00:49:44;;;;;;;4.20;2.00;;;;;;;14.23;35.63;102563.19;4171265;28;20037;-59
2021/04/26 00:51:44;;;;;;;3.42;1.73;;;;;;;14.22;35.68;102566.13;4179290;28;20036;-60
2021/04/26 00:53:45;;;;;;;3.53;1.98;;;;;;;14.21;35.74;102562.53;4173365;28;20037;-59
2021/04/26 00:55:47;;;;;;;2.85;1.30;;;;;;;14.18;35.64;102565.72;4178015;28;20032;-60
2021/04/26 00:57:47;;;;;;;4.07;1.23;;;;;;;14.18;35.61;102562.09;4172227;28;20029;-59
2021/04/26 00:59:48;;;;;;;2.15;1.23;;;;;;;14.18;35.55;102559.31;4171781;28;20431;-59
2021/04/26 01:02:27;;;;;;;3.40;1.40;;;;;;;14.15;35.57;102549.59;4170460;28;20037;-59
2021/04/26 01:04:30;;;;;;;1.90;1.30;;;;;;;14.19;35.61;102550.03;4172206;28;20383;-59
2021/04/26 01:06:30;;;;;;;3.88;2.20;;;;;;;14.14;35.58;102545.13;4173560;28;20040;-60
2021/04/26 01:08:31;;;;;;;2.38;1.45;;;;;;;14.15;35.54;102544.09;4174745;28;20079;-59
2021/04/26 01:10:34;;;;;;;3.67;1.35;;;;;;;14.12;35.60;102539.00;4180113;28;20032;-58
2021/04/26 01:12:46;;;;;;;2.53;1.20;;;;;;;14.14;35.59;102541.53;4176478;28;20130;-59
2021/04/26 01:14:59;;;;;;;1.55;1.10;;;;;;;14.06;35.64;102537.06;4176391;28;20795;-59
2021/04/26 01:17:08;;;;;;;2.65;1.20;;;;;;;14.03;35.78;102540.22;4177138;28;20501;-59
2021/04/26 01:19:17;;;;;;;3.13;1.90;;;;;;;14.06;35.56;102546.16;4175173;28;20043;-58
2021/04/26 01:21:38;;;;;;;2.40;1.80;;;;;;;14.01;35.73;102537.66;4177566;28;20090;-59
2021/04/26 01:23:47;;;;;;;2.25;1.50;;;;;;;14.00;35.64;102540.63;4187518;28;20032;-59
2021/04/26 01:25:50;;;;;;;1.63;1.33;;;;;;;13.99;35.66;102538.91;4176569;28;20032;-59
2021/04/26 01:28:22;;;;;;;1.65;1.00;;;;;;;13.96;35.77;102531.06;4176377;28;20484;-59
2021/04/26 01:32:55;;;;;;;2.45;1.20;;;;;;;13.95;35.80;102535.72;4834393;22;20058;-60
2021/04/26 01:34:56;;;;;;;3.50;1.65;;;;;;;13.89;35.68;102531.03;4107918;28;20456;-58
2021/04/26 01:36:57;;;;;;;2.72;1.52;;;;;;;13.91;35.67;102528.09;4120137;28;20026;-59
2021/04/26 01:38:59;;;;;;;3.08;1.20;;;;;;;13.90;35.65;102524.47;4123067;28;20424;-61
2021/04/26 01:41:01;;;;;;;1.95;1.35;;;;;;;13.87;35.72;102522.97;4120978;28;20668;-60
2021/04/26 01:43:02;;;;;;;2.28;1.30;;;;;;;13.86;35.45;102524.00;4121104;28;20586;-60
2021/04/26 01:45:06;;;;;;;2.30;1.33;;;;;;;13.87;35.63;102520.19;4121326;28;20481;-60
2021/04/26 01:47:07;;;;;;;2.50;1.95;;;;;;;13.84;35.64;102526.13;4118149;28;20038;-61
2021/04/26 01:49:09;;;;;;;1.73;1.38;;;;;;;13.79;35.67;102516.75;4119051;28;20451;-61
2021/04/26 01:51:11;;;;;;;2.05;1.73;;;;;;;13.79;35.74;102512.09;4120995;28;20542;-60
2021/04/26 01:53:11;;;;;;;2.08;1.10;;;;;;;13.76;35.85;102517.16;4120985;28;20064;-61
2021/04/26 01:55:13;;;;;;;2.70;2.03;;;;;;;13.73;35.79;102507.41;4120945;28;20034;-61
2021/04/26 01:57:14;;;;;;;1.10;0.90;;;;;;;13.72;35.74;102505.72;4125475;28;20388;-61
2021/04/26 01:59:15;;;;;;;2.33;1.70;;;;;;;13.76;35.76;102501.50;4123547;28;20124;-61
2021/04/26 02:01:19;;;;;;;2.17;1.98;;;;;;;13.73;35.91;102510.16;4123771;28;20081;-61
2021/04/26 02:03:21;;;;;;;1.85;1.58;;;;;;;13.70;35.88;102503.19;4120502;28;20477;-61
2021/04/26 02:05:24;;;;;;;1.55;1.45;;;;;;;13.67;35.75;102506.34;4124130;28;20293;-60
2021/04/26 02:07:26;;;;;;;3.38;2.17;;;;;;;13.68;35.89;102507.16;4123769;28;20495;-60
2021/04/26 02:09:29;;;;;;;3.05;1.70;;;;;;;13.64;35.80;102509.50;4122068;28;20030;-61
2021/04/26 02:11:29;;;;;;;2.53;1.10;;;;;;;13.63;35.95;102501.44;4130561;28;20042;-61
2021/04/26 02:13:31;;;;;;;2.50;1.20;;;;;;;13.61;35.91;102509.03;4130493;28;20793;-61
2021/04/26 02:15:33;;;;;;;1.25;1.10;;;;;;;13.65;35.81;102508.41;4121964;28;20504;-61
2021/04/26 02:17:34;;;;;;;1.55;1.38;;;;;;;13.61;35.91;102509.03;4123589;28;20358;-61
2021/04/26 02:19:35;;;;;;;2.35;1.42;;;;;;;13.58;35.87;102503.94;4125854;28;20439;-61
2021/04/26 02:21:35;;;;;;;2.22;1.40;;;;;;;13.60;35.78;102501.84;4126190;28;20450;-61
2021/04/26 02:23:37;;;;;;;1.88;1.30;;;;;;;13.56;35.82;102500.53;4128253;28;20038;-61
2021/04/26 02:25:38;;;;;;;3.80;1.67;;;;;;;13.56;35.93;102498.63;4121358;28;20435;-60
2021/04/26 02:27:39;;;;;;;2.15;1.20;;;;;;;13.56;35.74;102500.53;4126612;28;20030;-60
2021/04/26 02:29:39;;;;;;;2.13;1.20;;;;;;;13.52;35.99;102495.44;4121303;28;20108;-61
2021/04/26 02:31:43;;;;;;;1.20;1.10;;;;;;;13.51;35.90;102485.47;4124104;28;20619;-60
2021/04/26 02:33:51;;;;;;;3.47;1.50;;;;;;;13.52;35.86;102492.69;4107985;28;20058;-61
2021/04/26 02:35:58;;;;;;;1.60;1.10;;;;;;;13.50;35.94;102493.94;4105761;28;20122;-61
2021/04/26 02:38:02;;;;;;;1.58;1.45;;;;;;;13.47;35.91;102497.09;4109836;28;20090;-61
2021/04/26 02:40:11;;;;;;;1.90;1.05;;;;;;;13.50;35.97;102500.31;4098910;28;20022;-60
2021/04/26 02:42:15;;;;;;;1.88;1.00;;;;;;;13.45;35.93;102491.78;4108456;28;20495;-60
2021/04/26 02:44:24;;;;;;;1.95;0.98;;;;;;;13.43;36.00;102490.31;4105242;28;20138;-60
2021/04/26 02:46:26;;;;;;;2.40;1.05;;;;;;;13.46;35.91;102490.75;4109403;28;20041;-60
2021/04/26 02:48:27;;;;;;;1.00;0.90;;;;;;;13.40;36.13;102479.72;4110227;28;20078;-60
2021/04/26 02:50:29;;;;;;;1.77;0.95;;;;;;;13.40;36.03;102479.72;4104908;28;20105;-60
2021/04/26 02:52:30;;;;;;;0.80;0.80;;;;;;;13.38;35.95;102473.53;4108520;28;20035;-61
2021/04/26 02:54:31;;;;;;;2.40;1.98;;;;;;;13.30;36.06;102469.06;4106811;28;20050;-60
2021/04/26 02:56:37;;;;;;;2.33;1.23;;;;;;;13.32;35.94;102475.22;4107471;28;20043;-60
2021/04/26 02:58:38;;;;;;;2.03;1.30;;;;;;;13.31;36.05;102468.84;4106859;28;20039;-60
2021/04/26 03:00:40;;;;;;;1.58;1.40;;;;;;;13.32;36.04;102455.97;4103716;28;20114;-60
2021/04/26 03:02:42;;;;;;;1.90;1.63;;;;;;;13.30;36.00;102449.81;4109041;28;20034;-61
2021/04/26 03:04:43;;;;;;;4.05;1.60;;;;;;;13.31;35.97;102451.50;4109649;28;20042;-61
2021/04/26 03:06:46;;;;;;;1.20;1.02;;;;;;;13.29;36.13;102448.13;4114675;28;20516;-61
2021/04/26 03:08:46;;;;;;;2.38;1.58;;;;;;;13.26;35.96;102445.78;4106933;28;20058;-60
2021/04/26 03:10:49;;;;;;;3.42;1.60;;;;;;;13.21;36.08;102434.50;4112029;28;20085;-60
2021/04/26 03:12:51;;;;;;;1.63;1.52;;;;;;;13.22;36.10;102439.81;4110280;28;20043;-60
2021/04/26 03:14:52;;;;;;;2.40;2.30;;;;;;;13.22;36.06;102436.22;4107595;28;20117;-60
2021/04/26 03:16:54;;;;;;;2.67;1.42;;;;;;;13.22;36.11;102444.47;4103591;28;20039;-60
2021/04/26 03:18:55;;;;;;;2.35;1.73;;;;;;;13.17;36.13;102436.81;4107734;28;20119;-60
2021/04/26 03:20:57;;;;;;;1.95;1.20;;;;;;;13.15;36.07;102427.94;4108283;28;20536;-60
2021/04/26 03:22:58;;;;;;;1.65;1.52;;;;;;;13.17;36.12;102432.16;4106604;28;20034;-60
2021/04/26 03:24:59;;;;;;;2.08;1.98;;;;;;;13.17;36.00;102429.41;4107731;28;20031;-60
2021/04/26 03:27:00;;;;;;;1.75;1.17;;;;;;;13.15;36.08;102428.78;4110152;28;20041;-60
2021/04/26 03:29:02;;;;;;;2.10;1.90;;;;;;;13.13;36.08;102425.41;4111077;28;20043;-60
2021/04/26 03:31:04;;;;;;;3.72;1.95;;;;;;;13.16;36.15;102418.63;4110178;28;20035;-60
2021/04/26 03:33:05;;;;;;;2.85;1.42;;;;;;;13.07;35.99;102419.81;4109331;28;20043;-61
2021/04/26 03:35:06;;;;;;;2.63;1.70;;;;;;;13.07;36.22;102425.31;4103960;28;20035;-60
2021/04/26 03:37:08;;;;;;;2.88;1.95;;;;;;;13.08;36.17;102419.63;4108986;28;20062;-60
2021/04/26 03:39:12;;;;;;;3.13;2.28;;;;;;;13.04;36.13;102417.47;4103756;28;20035;-60
2021/04/26 03:41:13;;;;;;;1.92;1.00;;;;;;;13.02;36.20;102411.34;4105725;28;20030;-60
2021/04/26 03:43:14;;;;;;;2.35;1.65;;;;;;;13.02;36.21;102411.34;4110298;28;20404;-61
2021/04/26 03:45:16;;;;;;;1.55;1.30;;;;;;;12.99;36.17;102418.09;4106364;28;20470;-60
2021/04/26 03:47:17;;;;;;;2.08;1.73;;;;;;;12.97;36.21;102401.78;4107623;28;20094;-60
2021/04/26 03:49:18;;;;;;;3.15;1.50;;;;;;;13.00;36.17;102408.78;4103814;28;20441;-62
2021/04/26 03:51:18;;;;;;;1.70;1.60;;;;;;;12.98;36.15;102405.41;4106075;28;20524;-61
2021/04/26 03:53:18;;;;;;;4.25;2.80;;;;;;;12.94;35.90;102404.94;4110039;28;20500;-60
2021/04/26 03:55:21;;;;;;;1.73;1.63;;;;;;;12.92;36.24;102403.47;4113663;28;20042;-61
2021/04/26 03:57:22;;;;;;;2.17;1.85;;;;;;;12.94;36.21;102409.59;4108354;28;20417;-60
2021/04/26 03:59:22;;;;;;;2.88;1.08;;;;;;;12.93;36.34;102407.88;4101615;28;20039;-61
2021/04/26 04:01:23;;;;;;;1.63;0.90;;;;;;;12.88;36.31;102405.75;4104320;28;20437;-61
2021/04/26 04:03:23;;;;;;;3.03;1.48;;;;;;;12.89;36.28;102414.84;4108723;28;20034;-61
2021/04/26 04:05:24;;;;;;;3.15;1.60;;;;;;;12.88;36.25;102408.50;4105159;28;20057;-60
2021/04/26 04:07:26;;;;;;;2.90;1.48;;;;;;;12.82;36.30;102404.63;4106698;28;20026;-61
2021/04/26 04:09:26;;;;;;;1.92;1.33;;;;;;;12.86;36.33;102404.22;4090222;28;20051;-61
2021/04/26 04:11:27;;;;;;;2.22;1.90;;;;;;;12.88;36.27;102407.66;4108866;28;20054;-61
2021/04/26 04:13:27;;;;;;;1.30;1.20;;;;;;;12.82;36.14;102403.75;4107391;28;20519;-61
2021/04/26 04:15:28;;;;;;;2.47;1.13;;;;;;;12.82;36.35;102399.13;4109257;28;20047;-61
2021/04/26 04:17:28;;;;;;;3.20;1.33;;;;;;;12.85;36.34;102405.28;4110498;28;20035;-61
2021/04/26 04:19:29;;;;;;;1.35;1.35;;;;;;;12.83;36.27;102394.47;4107953;28;20101;-61
2021/04/26 04:21:29;;;;;;;1.15;1.15;;;;;;;12.85;36.15;102410.78;4114027;28;20030;-61
2021/04/26 04:23:30;;;;;;;1.55;1.40;;;;;;;12.80;36.26;102392.97;4106445;28;20035;-61
2021/04/26 04:25:30;;;;;;;1.65;1.55;;;;;;;12.78;36.25;102386.84;4108434;28;20039;-61
2021/04/26 04:27:31;;;;;;;2.17;1.00;;;;;;;12.77;36.24;102392.53;4110283;28;20035;-61
2021/04/26 04:29:31;;;;;;;1.55;1.45;;;;;;;12.75;36.39;102394.63;4105544;28;20477;-61
2021/04/26 04:31:32;;;;;;;1.17;1.10;;;;;;;12.76;36.26;102391.69;4104061;28;20027;-61
2021/04/26 04:33:33;;;;;;;1.58;1.20;;;;;;;12.76;36.41;102388.06;4110814;28;20055;-61
2021/04/26 04:35:33;;;;;;;1.65;1.42;;;;;;;12.75;36.47;102391.88;4107957;28;20027;-61
2021/04/26 04:37:34;;;;;;;1.75;1.13;;;;;;;12.70;36.20;102376.00;4110950;28;20038;-60
2021/04/26 04:39:35;;;;;;;2.17;0.98;;;;;;;12.77;36.28;102387.03;4105091;28;20027;-61
2021/04/26 04:41:35;;;;;;;1.85;1.05;;;;;;;12.79;36.26;102385.78;4108815;28;20098;-61
2021/04/26 04:43:35;;;;;;;2.05;1.10;;;;;;;12.77;36.24;102390.63;4109204;28;20461;-61
2021/04/26 04:45:36;;;;;;;1.38;1.00;;;;;;;12.82;36.17;102382.66;4107390;28;20050;-60
2021/04/26 04:47:36;;;;;;;1.88;1.33;;;;;;;12.79;36.15;102377.56;4109103;28;20367;-61
2021/04/26 04:49:37;;;;;;;2.88;1.50;;;;;;;12.81;36.05;102382.84;4107232;28;20031;-60
2021/04/26 04:51:37;;;;;;;1.95;1.20;;;;;;;12.81;36.12;102377.34;4106696;28;20481;-61
2021/04/26 04:53:38;;;;;;;1.20;1.10;;;;;;;12.90;36.04;102394.56;4106006;28;20038;-61
2021/04/26 04:55:38;;;;;;;2.90;1.42;;;;;;;12.98;35.82;102384.25;4104775;28;20035;-61
2021/04/26 04:57:38;;;;;;;2.13;0.70;;;;;;;13.03;35.75;102378.16;4106434;28;20033;-61
2021/04/26 04:59:39;;;;;;;0.95;0.85;;;;;;;13.10;35.65;102380.94;4109321;28;20042;-61
2021/04/26 05:01:39;;;;;;;1.45;1.35;;;;;;;13.14;35.49;102376.75;4106392;28;20042;-60
2021/04/26 05:03:40;;;;;;;1.85;0.90;;;;;;;13.09;35.44;102365.53;4107473;28;20069;-60
2021/04/26 05:05:40;;;;;;;1.40;0.90;;;;;;;13.20;35.36;102367.69;4108567;28;20074;-61
2021/04/26 05:07:41;;;;;;;1.20;1.10;;;;;;;13.31;35.21;102378.09;4107763;28;20026;-60
2021/04/26 05:09:41;;;;;;;1.38;0.80;;;;;;;13.38;34.84;102377.28;4126112;28;20073;-60
2021/04/26 05:11:42;;;;;;;1.40;1.02;;;;;;;13.47;34.80;102378.81;4109284;28;20054;-61
2021/04/26 05:13:42;;;;;;;1.35;1.25;;;;;;;13.49;34.75;102374.81;4107879;28;20038;-61
2021/04/26 05:15:43;;;;;;;1.27;1.00;;;;;;;13.56;34.63;102371.25;4114295;28;20050;-61
2021/04/26 05:17:43;;;;;;;1.00;0.70;;;;;;;13.62;34.42;102376.75;4108699;28;20034;-61
2021/04/26 05:19:44;;;;;;;2.17;1.40;;;;;;;13.64;34.22;102365.53;4116013;28;20373;-61
2021/04/26 05:21:44;;;;;;;1.10;1.00;;;;;;;13.77;34.02;102373.03;4104624;28;20142;-61
2021/04/26 05:23:45;;;;;;;2.05;1.27;;;;;;;13.83;33.99;102377.69;4108572;28;20093;-61
2021/04/26 05:25:49;;;;;;;2.25;1.20;;;;;;;13.88;33.84;102377.91;4105242;28;20158;-61
2021/04/26 05:27:50;;;;;;;1.48;1.10;;;;;;;13.95;33.86;102370.56;4103879;28;20106;-61
2021/04/26 05:29:50;;;;;;;2.55;1.15;;;;;;;14.01;33.69;102379.88;4107796;28;20424;-61
2021/04/26 05:31:51;;;;;;;1.70;1.60;;;;;;;13.95;33.65;102354.03;4105661;28;20121;-61
2021/04/26 05:33:51;;;;;;;3.38;0.85;;;;;;;14.14;33.53;102379.91;4106260;28;20536;-61
2021/04/26 05:35:51;;;;;;;0.73;0.65;;;;;;;14.22;33.29;102374.19;4108424;28;20039;-61
2021/04/26 05:37:53;;;;;;;1.92;0.73;;;;;;;14.27;33.29;102378.22;4108376;28;20421;-61
2021/04/26 05:39:54;;;;;;;1.85;1.02;;;;;;;14.35;33.00;102372.50;4106715;28;20039;-61
2021/04/26 05:41:54;;;;;;;2.40;0.80;;;;;;;14.43;32.98;102366.81;4099200;28;20137;-61
2021/04/26 05:43:55;;;;;;;1.10;0.60;;;;;;;14.45;32.98;102372.94;4104851;28;20043;-62
2021/04/26 05:45:55;;;;;;;1.42;1.00;;;;;;;14.53;32.73;102369.97;4106493;28;20089;-61
2021/04/26 05:47:56;;;;;;;1.08;0.80;;;;;;;14.55;32.78;102364.25;4101333;28;20026;-61
2021/04/26 05:49:56;;;;;;;1.23;0.70;;;;;;;14.58;32.64;102364.69;4106965;28;20373;-61
2021/04/26 05:51:56;;;;;;;4.13;0.85;;;;;;;14.63;32.51;102352.16;4106511;28;20031;-62
2021/04/26 05:53:57;;;;;;;2.50;0.60;;;;;;;14.76;32.29;102363.19;4105751;28;20500;-62
2021/04/26 05:55:58;;;;;;;1.08;0.60;;;;;;;14.83;32.22;102361.28;4105977;28;20026;-61
2021/04/26 05:57:58;;;;;;;1.67;0.75;;;;;;;14.82;32.32;102364.25;4102741;28;20039;-61
2021/04/26 05:59:59;;;;;;;0.60;0.38;;;;;;;14.86;32.21;102355.38;4106187;28;20035;-60
2021/04/26 06:01:59;;;;;;;1.17;0.50;;;;;;;14.89;32.09;102359.59;4106167;28;20428;-60
2021/04/26 06:04:00;;;;;;;1.58;0.60;;;;;;;14.95;32.00;102362.34;4108593;28;20039;-60
2021/04/26 06:06:00;;;;;;;1.05;0.82;;;;;;;14.99;31.87;102356.41;4102183;28;20618;-61
2021/04/26 06:08:00;;;;;;;1.67;0.98;;;;;;;15.04;31.87;102351.06;4108483;28;20061;-60
2021/04/26 06:10:01;;;;;;;1.98;0.77;;;;;;;15.07;31.81;102345.13;4102674;28;20436;-61
2021/04/26 06:12:02;;;;;;;2.65;0.90;;;;;;;15.08;31.91;102352.34;4105066;28;20054;-61
2021/04/26 06:14:02;;;;;;;0.98;0.65;;;;;;;15.14;31.61;102357.84;4108531;28;20038;-60
2021/04/26 06:16:03;;;;;;;1.00;0.90;;;;;;;15.23;31.51;102350.19;4106655;28;20031;-60
2021/04/26 06:18:11;;;;;;;2.75;0.70;;;;;;;15.31;31.41;102357.38;4103347;28;20549;-61
2021/04/26 06:20:12;;;;;;;3.85;1.52;;;;;;;15.39;31.40;102354.34;4106836;28;20038;-61
2021/04/26 06:22:12;;;;;;;7.30;1.63;;;;;;;15.31;31.43;102335.31;4105265;28;20074;-61
2021/04/26 06:24:13;;;;;;;0.93;0.52;;;;;;;15.45;31.56;102356.25;4105167;28;20043;-61
2021/04/26 06:26:13;;;;;;;1.67;0.70;;;;;;;15.55;31.14;102355.75;4102090;28;20038;-61
2021/04/26 06:28:14;;;;;;;2.47;1.20;;;;;;;15.59;31.26;102357.03;4105292;28;20030;-61
2021/04/26 06:30:15;;;;;;;3.63;0.80;;;;;;;15.71;31.14;102356.31;4106512;28;20043;-61
2021/04/26 06:32:16;;;;;;;2.75;0.77;;;;;;;15.77;31.05;102359.09;4103383;28;20042;-62
2021/04/26 06:34:16;;;;;;;4.15;1.00;;;;;;;15.77;31.05;102361.00;4107328;28;20063;-62
2021/04/26 06:36:17;;;;;;;4.32;1.30;;;;;;;15.88;30.77;102363.09;4109267;28;20035;-62
2021/04/26 06:38:18;;;;;;;2.33;1.00;;;;;;;15.87;30.93;102361.38;4089266;28;20031;-62
2021/04/26 06:40:19;;;;;;;2.47;1.08;;;;;;;15.97;30.87;102359.00;4108787;28;20078;-61
2021/04/26 06:42:20;;;;;;;1.13;1.02;;;;;;;16.09;30.60;102367.38;4104719;28;20043;-61
2021/04/26 06:44:20;;;;;;;1.95;0.70;;;;;;;16.15;30.42;102365.66;4110567;28;20073;-61
2021/04/26 06:46:20;;;;;;;2.05;0.85;;;;;;;16.18;30.52;102359.69;4105872;28;20031;-61
2021/04/26 06:48:23;;;;;;;0.95;0.75;;;;;;;16.28;30.52;102371.09;4111098;28;20038;-62
2021/04/26 06:50:24;;;;;;;2.08;0.98;;;;;;;16.35;30.27;102368.28;4106490;28;20500;-62
2021/04/26 06:52:24;;;;;;;0.90;0.88;;;;;;;16.35;30.27;102368.28;4106403;28;20043;-62
2021/04/26 06:54:25;;;;;;;6.82;1.00;;;;;;;16.37;30.26;102369.75;4107722;28;20042;-62
2021/04/26 06:56:25;;;;;;;1.60;0.90;;;;;;;16.36;30.49;102368.06;4104087;28;20650;-61
2021/04/26 06:58:26;;;;;;;2.03;1.00;;;;;;;16.41;30.17;102367.38;4104406;28;20061;-61
2021/04/26 07:00:27;;;;;;;5.10;1.10;;;;;;;16.41;30.05;102361.84;4106704;28;20035;-61
2021/04/26 07:02:28;;;;;;;3.38;0.90;;;;;;;16.43;30.35;102367.16;4104839;28;20410;-61
2021/04/26 07:04:28;;;;;;;2.15;0.85;;;;;;;16.48;30.09;102364.53;4107198;28;20034;-62
2021/04/26 07:06:29;;;;;;;1.80;0.93;;;;;;;16.55;30.08;102368.13;4111885;28;20033;-62
2021/04/26 07:08:29;;;;;;;1.08;0.98;;;;;;;16.51;30.26;102355.81;4109782;28;20031;-62
2021/04/26 07:10:30;;;;;;;2.60;0.80;;;;;;;16.55;29.99;102363.41;4108168;28;20500;-61
2021/04/26 07:12:30;;;;;;;1.10;0.70;;;;;;;16.66;29.91;102349.97;4107794;28;20067;-62
2021/04/26 07:14:31;;;;;;;1.85;0.73;;;;;;;16.59;30.04;102363.84;4107946;28;20045;-62
2021/04/26 07:16:31;;;;;;;1.15;0.55;;;;;;;16.58;30.04;102359.38;4107284;28;20551;-62
2021/04/26 07:18:32;;;;;;;1.05;0.50;;;;;;;16.67;29.93;102354.44;4108415;28;20035;-62
2021/04/26 07:20:32;;;;;;;2.28;0.75;;;;;;;16.72;29.84;102351.81;4106262;28;20105;-62
2021/04/26 07:22:33;;;;;;;4.82;0.80;;;;;;;16.77;29.84;102349.22;4104867;28;20043;-62
2021/04/26 07:24:34;;;;;;;1.75;1.00;;;;;;;16.84;29.61;102355.53;4104729;28;20039;-62
2021/04/26 07:26:35;;;;;;;1.05;0.63;;;;;;;16.86;29.68;102349.78;4106804;28;20051;-63
2021/04/26 07:28:35;;;;;;;2.00;1.10;;;;;;;16.96;29.83;102339.03;4104336;28;20089;-62
2021/04/26 07:30:36;;;;;;;1.73;0.95;;;;;;;17.06;29.60;102344.88;4105228;28;20039;-64
2021/04/26 07:32:36;;;;;;;6.95;0.88;;;;;;;17.33;29.69;102339.00;4103313;28;20027;-63
2021/04/26 07:34:37;;;;;;;2.95;0.73;;;;;;;17.23;29.87;102347.88;4101432;28;20050;-62
2021/04/26 07:36:38;;;;;;;1.55;0.90;;;;;;;16.82;30.64;102351.28;4103320;28;20103;-62
2021/04/26 07:38:38;;;;;;;3.60;0.95;;;;;;;16.70;30.96;102340.16;4103722;28;20034;-62
2021/04/26 07:40:39;;;;;;;3.90;1.13;;;;;;;16.56;30.96;102339.41;4108433;28;20034;-61
2021/04/26 07:42:41;;;;;;;2.28;1.25;;;;;;;16.97;30.56;102343.47;4106114;28;20030;-62
2021/04/26 07:44:41;;;;;;;6.82;1.00;;;;;;;17.27;30.25;102329.72;4102328;28;20051;-62
2021/04/26 07:46:41;;;;;;;2.33;0.80;;;;;;;17.51;29.81;102335.41;4106420;28;20034;-62
2021/04/26 07:48:42;;;;;;;3.20;0.68;;;;;;;17.65;29.78;102330.53;4107550;28;20045;-62
2021/04/26 07:50:44;;;;;;;1.27;0.80;;;;;;;17.68;29.77;102326.47;4106028;28;20064;-63
2021/04/26 07:52:44;;;;;;;1.88;0.90;;;;;;;17.73;29.62;102326.59;4105625;28;20045;-62
2021/04/26 07:54:45;;;;;;;2.80;0.77;;;;;;;17.90;29.50;102333.16;4107831;28;20489;-63
2021/04/26 07:56:45;;;;;;;2.55;1.00;;;;;;;17.94;29.39;102322.47;4109151;28;20043;-62
2021/04/26 07:58:46;;;;;;;3.45;0.93;;;;;;;18.14;29.25;102322.97;4106851;28;20086;-63
2021/04/26 08:00:46;;;;;;;2.53;0.90;;;;;;;18.18;29.27;102320.56;4105151;28;20122;-62
2021/04/26 08:02:46;;;;;;;2.28;0.65;;;;;;;18.21;29.12;102313.72;4105577;28;20081;-62
2021/04/26 08:04:47;;;;;;;2.70;1.00;;;;;;;18.31;28.99;102316.78;4108192;28;20034;-62
2021/04/26 08:06:47;;;;;;;1.17;0.68;;;;;;;18.46;28.94;102321.84;4110225;28;20027;-62
2021/04/26 08:08:48;;;;;;;3.72;0.80;;;;;;;18.44;29.01;102310.16;4109328;28;20031;-62
2021/04/26 08:10:48;;;;;;;1.85;0.80;;;;;;;18.56;28.96;102308.22;4107221;28;20050;-61
2021/04/26 08:12:49;;;;;;;2.28;0.57;;;;;;;18.62;28.47;102311.97;4119200;28;20061;-61
2021/04/26 08:14:50;;;;;;;2.15;0.77;;;;;;;18.68;28.69;102309.06;4106850;28;20490;-62
2021/04/26 08:16:51;;;;;;;2.70;0.43;;;;;;;18.72;28.46;102306.66;4110096;28;20035;-62
2021/04/26 08:18:51;;;;;;;1.00;0.40;;;;;;;18.89;28.35;102306.75;4106905;28;20058;-62
2021/04/26 08:20:53;;;;;;;0.77;0.55;;;;;;;18.92;28.46;102309.03;4108155;28;20035;-61
2021/04/26 08:22:53;;;;;;;1.55;0.73;;;;;;;19.16;28.03;102306.25;4108759;28;20065;-62
2021/04/26 08:24:54;;;;;;;0.95;0.50;;;;;;;19.24;27.78;102306.69;4106229;28;20227;-62
2021/04/26 08:26:55;;;;;;;1.08;0.70;;;;;;;19.28;27.97;102297.88;4107995;28;20031;-62
2021/04/26 08:28:56;;;;;;;1.58;0.63;;;;;;;19.45;27.70;102303.50;4107571;28;20070;-62
2021/04/26 08:30:56;;;;;;;1.65;0.50;;;;;;;19.26;27.99;102309.22;4109573;28;20377;-63
2021/04/26 08:32:57;;;;;;;1.17;0.57;;;;;;;19.37;27.99;102304.72;4111031;28;20430;-63
2021/04/26 08:34:57;;;;;;;2.05;0.52;;;;;;;19.24;27.99;102308.66;4100410;28;20066;-62
2021/04/26 08:36:57;;;;;;;0.70;0.50;;;;;;;18.97;28.32;102292.53;4115438;28;20062;-63
2021/04/26 08:38:58;;;;;;;2.92;0.80;;;;;;;19.15;28.40;102304.56;4109813;28;20527;-62
2021/04/26 08:40:58;;;;;;;3.05;0.77;;;;;;;19.53;27.70;102295.63;4108657;28;20039;-63
2021/04/26 08:43:06;;;;;;;1.27;0.60;;;;;;;19.79;27.38;102301.66;4104969;28;20482;-62
2021/04/26 08:45:10;;;;;;;1.70;0.70;;;;;;;19.51;27.57;102297.81;4107245;28;20397;-64
2021/04/26 08:47:11;;;;;;;0.50;0.35;;;;;;;19.51;27.52;102292.25;4106234;28;20122;-63
2021/04/26 08:49:12;;;;;;;1.90;0.75;;;;;;;19.58;27.54;102304.03;4107052;28;20146;-63
2021/04/26 08:51:12;;;;;;;1.48;0.68;;;;;;;19.60;27.32;102296.31;4110538;28;20031;-63
2021/04/26 08:53:13;;;;;;;1.00;0.50;;;;;;;19.52;27.37;102293.94;4104635;28;20050;-63
2021/04/26 08:55:15;;;;;;;0.80;0.50;;;;;;;19.74;26.83;102291.31;4106339;28;20035;-63
2021/04/26 08:57:16;;;;;;;1.08;0.57;;;;;;;19.54;27.17;102283.44;4100658;28;20045;-63
2021/04/26 08:59:16;;;;;;;1.23;0.60;;;;;;;19.62;26.89;102286.88;4106834;28;20047;-63
2021/04/26 09:01:16;;;;;;;1.25;0.60;;;;;;;19.78;26.73;102286.91;4107876;28;20034;-63
2021/04/26 09:03:17;;;;;;;1.48;0.68;;;;;;;19.98;26.40;102284.78;4101465;28;20041;-63
2021/04/26 09:05:29;;;;;;;0.93;0.68;;;;;;;19.94;26.23;102282.53;4105781;28;20023;-63
2021/04/26 09:07:29;;;;;;;2.53;0.40;;;;;;;19.92;26.59;102284.69;4104075;28;20031;-63
2021/04/26 09:09:36;;;;;;;1.15;0.40;;;;;;;19.52;26.90;102282.81;4106740;28;20045;-63
2021/04/26 09:11:51;;;;;;;1.73;0.70;;;;;;;19.82;26.34;102273.38;4104831;28;20081;-63
2021/04/26 09:13:52;;;;;;;1.33;0.60;;;;;;;19.50;26.88;102282.22;4110557;28;20472;-63
2021/04/26 09:16:03;;;;;;;2.05;0.80;;;;;;;19.03;27.72;102280.44;4106980;28;20577;-63
2021/04/26 09:18:03;;;;;;;3.95;0.85;;;;;;;18.87;27.88;102276.47;4104449;28;20501;-63
2021/04/26 09:20:19;;;;;;;3.75;0.77;;;;;;;19.11;27.55;102284.78;4106897;28;20033;-63
2021/04/26 09:22:59;;;;;;;0.70;0.50;;;;;;;19.93;26.52;102272.50;4109508;28;20117;-62
2021/04/26 09:25:23;;;;;;;4.35;1.05;;;;;;;19.59;26.87;102277.97;4072157;29;20582;-62
2021/04/26 09:27:23;;;;;;;2.25;0.60;;;;;;;20.08;26.06;102279.38;4068642;29;20479;-62
2021/04/26 09:29:27;;;;;;;1.70;0.60;;;;;;;20.33;25.93;102267.00;4075414;28;20067;-63